New York, NY (10114)

1:28 PM EST on December 22, 2014 (GMT -0500)
Central Park | Change Station
CLOSE
Current Station
Airport
Location: Central Park,
Elevation: 154 ft
Nearby Weather Stations

Elev 154 ft 40.78 °N, 73.97 °W | Updated 37 minutes ago

Overcast
Overcast
41 °F
Feels Like 36 °F
N
7
Wind Variable Wind from ENE

Today
High -- | Low -- °F
--% Chance of Precip.
Yesterday
High -- | Low -- °F
Precip. -- in
7:17 AM 4:32 PM
New Moon, 1% visible
Pressure 30.26 in
Visibility 8.0 miles
Clouds Overcast 1000 ft
Windchill 36 °F
Dew Point 35 °F
Humidity 79%
Rainfall 0.00 in
Snow Depth Not available.
UV 1 out of 12
Pollen .10 out of 12
Air Quality Not available.
Flu Activity Not available.
METAR KNYC 221751Z AUTO 06006KT 8SM OVC010 05/02 A3028 RMK AO2 SLP247 T00500017 10050 20022 58020 $

More Conditions Fewer Conditions

Pressure 30.26 in
Visibility 8.0 miles
Clouds Overcast 1000 ft
Windchill 36 °F
Dew Point 35 °F
Humidity 79%
Rainfall 0.00 in
Snow Depth Not available.
UV 1 out of 12
Pollen .10 out of 12
Air Quality Not available.
Flu Activity Not available.
METAR KNYC 221751Z AUTO 06006KT 8SM OVC010 05/02 A3028 RMK AO2 SLP247 T00500017 10050 20022 58020 $

More Conditions Fewer Conditions

10-Day Weather Forecast

Almanac

Astronomy

Dec. 22, 2014 Rise Set
Actual Time
Civil Twilight
Nautical Twilight
Astronomical Twilight
Moon
Length of Visible Light
Length of Day
Tomorrow will be .
, % of the Moon is Illuminated

Today's Extremes

State Highs State Lows

Community

WunderPhotos

Upload Photos

1,779,663 photos uploaded!

WunderBlogs® & News

Nearby

Air Quality

  Air Quality AQ Index Pollutant
Not available.

Snow Depth

Station Depth Elevation

Earthquake Activity

City Distance Mag. Time & Date
Minimum magnitude displayed is 2.5.

Coastal Water Temperatures

Place Temperature

Nearby Weather Stations